Time;durP1;ratioP1;P1;durP2;ratioP2;P2;SDS_P1;SDS_P2;PMS_P1;PMS_P2;Temp;Humidity;BMP_temperature;BMP_pressure;BME280_temperature;BME280_humidity;BME280_pressure;Samples;Min_cycle;Max_cycle;Signal;HPM_P1;HPM_P2
2023/11/18 00:04:03;;;;;;;9.02;4.15;;;;;;;;;;10221838;28;20411;-62
2023/11/18 00:09:04;;;;;;;12.18;4.05;;;;;;;;;;10246646;28;20027;-63
2023/11/18 00:14:05;;;;;;;6.35;3.58;;;;;;;;;;10233461;29;20054;-63
2023/11/18 00:19:05;;;;;;;7.32;3.20;;;;;;;;;;10212505;29;20063;-63
2023/11/18 00:24:07;;;;;;;7.03;3.35;;;;;;;;;;10229905;29;20030;-67
2023/11/18 00:29:08;;;;;;;10.20;4.05;;;;;;;;;;10225712;28;20487;-65
2023/11/18 00:34:10;;;;;;;9.95;3.60;;;;;;;;;;10228476;28;20093;-62
2023/11/18 00:39:11;;;;;;;6.38;3.70;;;;;;;;;;10231543;28;20101;-67
2023/11/18 00:44:13;;;;;;;7.90;3.42;;;;;;;;;;10243959;29;20053;-62
2023/11/18 00:49:14;;;;;;;7.90;3.42;;;;;;;;;;10245086;28;20065;-67
2023/11/18 00:54:14;;;;;;;12.18;3.90;;;;;;;;;;10244036;28;20039;-65
2023/11/18 00:59:15;;;;;;;6.97;3.50;;;;;;;;;;10232901;29;20039;-59
2023/11/18 01:04:16;;;;;;;5.00;2.70;;;;;;;;;;10220855;29;20039;-58
2023/11/18 01:09:16;;;;;;;9.63;2.95;;;;;;;;;;10244041;28;20043;-62
2023/11/18 01:14:17;;;;;;;7.40;3.40;;;;;;;;;;10244359;28;20098;-65
2023/11/18 01:19:18;;;;;;;7.10;3.10;;;;;;;;;;10243671;29;20406;-63
2023/11/18 01:24:19;;;;;;;11.40;3.28;;;;;;;;;;10232037;28;20054;-62
2023/11/18 01:29:22;;;;;;;11.05;3.00;;;;;;;;;;10231661;28;20043;-58
2023/11/18 01:34:22;;;;;;;7.05;3.40;;;;;;;;;;10243880;29;20032;-60
2023/11/18 01:39:24;;;;;;;5.47;3.03;;;;;;;;;;10239579;29;20036;-58
2023/11/18 01:44:28;;;;;;;11.77;3.65;;;;;;;;;;10234916;29;20030;-57
2023/11/18 01:49:29;;;;;;;6.40;3.50;;;;;;;;;;10232489;28;20047;-60
2023/11/18 01:54:30;;;;;;;4.05;2.72;;;;;;;;;;10241111;29;20506;-58
2023/11/18 01:59:33;;;;;;;4.32;2.90;;;;;;;;;;10236207;29;20043;-60
2023/11/18 02:04:33;;;;;;;7.03;3.13;;;;;;;;;;10228342;28;20079;-59
2023/11/18 02:09:36;;;;;;;4.85;3.00;;;;;;;;;;10238527;29;20460;-58
2023/11/18 02:14:39;;;;;;;5.05;2.53;;;;;;;;;;10238513;29;20027;-61
2023/11/18 02:19:41;;;;;;;4.43;2.53;;;;;;;;;;10250793;28;20027;-60
2023/11/18 02:24:42;;;;;;;5.88;2.85;;;;;;;;;;10250058;28;20758;-59
2023/11/18 02:29:45;;;;;;;5.05;2.63;;;;;;;;;;10250495;29;20043;-58
2023/11/18 02:35:10;;;;;;;6.30;3.17;;;;;;;;;;10233630;29;20422;-58
2023/11/18 02:40:16;;;;;;;6.40;2.83;;;;;;;;;;10248432;29;20062;-59
2023/11/18 02:45:17;;;;;;;4.05;2.97;;;;;;;;;;10241371;28;20027;-60
2023/11/18 02:50:19;;;;;;;4.05;2.90;;;;;;;;;;10224756;28;20031;-63
2023/11/18 02:55:24;;;;;;;5.03;2.72;;;;;;;;;;10248982;29;20662;-60
2023/11/18 03:00:24;;;;;;;4.40;2.50;;;;;;;;;;10248400;29;20027;-58
2023/11/18 03:05:26;;;;;;;4.50;2.75;;;;;;;;;;10236312;29;20482;-58
2023/11/18 03:10:26;;;;;;;4.60;2.58;;;;;;;;;;10248604;28;20457;-58
2023/11/18 03:15:28;;;;;;;5.05;2.92;;;;;;;;;;10236899;28;20024;-59
2023/11/18 03:20:29;;;;;;;4.80;2.47;;;;;;;;;;10262406;28;20042;-58
2023/11/18 03:25:29;;;;;;;10.05;2.58;;;;;;;;;;10232983;28;20027;-58
2023/11/18 03:30:30;;;;;;;6.32;2.65;;;;;;;;;;10226361;29;20075;-59
2023/11/18 03:35:31;;;;;;;8.88;2.63;;;;;;;;;;10212253;28;20028;-59
2023/11/18 03:40:31;;;;;;;3.95;2.35;;;;;;;;;;10243958;29;20047;-58
2023/11/18 03:45:33;;;;;;;2.83;2.30;;;;;;;;;;10222668;28;20047;-58
2023/11/18 03:50:34;;;;;;;3.60;2.40;;;;;;;;;;10240991;28;20032;-57
2023/11/18 03:55:35;;;;;;;3.92;2.40;;;;;;;;;;10238357;29;20050;-57
2023/11/18 04:00:36;;;;;;;2.78;2.45;;;;;;;;;;10217412;29;20325;-57
2023/11/18 04:05:38;;;;;;;3.25;2.30;;;;;;;;;;10226471;29;20031;-57
2023/11/18 04:10:39;;;;;;;3.80;2.28;;;;;;;;;;10219055;28;20027;-57
2023/11/18 04:15:40;;;;;;;2.50;2.08;;;;;;;;;;10221585;29;20482;-62
2023/11/18 04:20:40;;;;;;;3.15;2.17;;;;;;;;;;10231339;29;20144;-61
2023/11/18 04:25:41;;;;;;;7.05;2.10;;;;;;;;;;10223886;29;20051;-59
2023/11/18 04:30:41;;;;;;;3.35;2.13;;;;;;;;;;10233542;29;20036;-61
2023/11/18 04:35:42;;;;;;;3.80;2.47;;;;;;;;;;10233490;29;20027;-63
2023/11/18 04:40:44;;;;;;;4.38;2.20;;;;;;;;;;10220931;29;20024;-59
2023/11/18 04:45:45;;;;;;;4.93;2.88;;;;;;;;;;10229018;29;20031;-62
2023/11/18 04:50:45;;;;;;;3.72;2.03;;;;;;;;;;10226190;28;20043;-60
2023/11/18 04:55:46;;;;;;;2.13;1.92;;;;;;;;;;10209293;28;20069;-64
2023/11/18 05:00:48;;;;;;;2.67;1.80;;;;;;;;;;10209062;29;20036;-59
2023/11/18 05:05:49;;;;;;;8.27;2.17;;;;;;;;;;10214657;29;20027;-58
2023/11/18 05:10:50;;;;;;;3.58;2.45;;;;;;;;;;10215891;28;20040;-58
2023/11/18 05:15:54;;;;;;;3.03;2.08;;;;;;;;;;10208993;29;20039;-59
2023/11/18 05:20:54;;;;;;;2.30;1.83;;;;;;;;;;10220799;29;20027;-59
2023/11/18 05:25:58;;;;;;;2.88;2.25;;;;;;;;;;10209610;29;20027;-59
2023/11/18 05:31:01;;;;;;;3.20;2.10;;;;;;;;;;10217061;28;20066;-59
2023/11/18 05:36:05;;;;;;;4.07;2.15;;;;;;;;;;10228740;29;20019;-59
2023/11/18 05:41:16;;;;;;;2.10;1.90;;;;;;;;;;10218158;28;20082;-58
2023/11/18 05:46:24;;;;;;;2.55;1.95;;;;;;;;;;10236886;28;20122;-59
2023/11/18 05:51:26;;;;;;;3.58;2.08;;;;;;;;;;10216316;28;20098;-57
2023/11/18 05:56:27;;;;;;;3.42;2.22;;;;;;;;;;10227295;28;20047;-57
2023/11/18 06:01:28;;;;;;;2.92;2.28;;;;;;;;;;10236720;28;20490;-58
2023/11/18 06:06:28;;;;;;;2.97;1.98;;;;;;;;;;10246150;28;20046;-58
2023/11/18 06:11:31;;;;;;;2.95;1.95;;;;;;;;;;10259369;28;20047;-58
2023/11/18 06:16:32;;;;;;;2.85;1.92;;;;;;;;;;10240242;28;20031;-60
2023/11/18 06:21:33;;;;;;;2.63;2.10;;;;;;;;;;10222987;28;20114;-62
2023/11/18 06:26:35;;;;;;;4.05;2.03;;;;;;;;;;10221308;28;20035;-58
2023/11/18 06:31:36;;;;;;;2.58;1.90;;;;;;;;;;10232224;28;20028;-58
2023/11/18 06:36:37;;;;;;;2.17;1.70;;;;;;;;;;10226165;28;20039;-58
2023/11/18 06:41:47;;;;;;;4.95;2.00;;;;;;;;;;10224477;28;20495;-62
2023/11/18 06:46:50;;;;;;;4.18;1.60;;;;;;;;;;10224875;28;20035;-60
2023/11/18 06:51:51;;;;;;;1.98;1.60;;;;;;;;;;10239401;28;20056;-58
2023/11/18 06:56:52;;;;;;;4.00;1.83;;;;;;;;;;10247903;28;20098;-60
2023/11/18 07:01:53;;;;;;;4.80;1.98;;;;;;;;;;10248589;28;20031;-61
2023/11/18 07:06:54;;;;;;;9.68;2.15;;;;;;;;;;10246549;28;20487;-59
2023/11/18 07:11:55;;;;;;;4.18;1.88;;;;;;;;;;10247162;28;20562;-58
2023/11/18 07:16:56;;;;;;;9.15;2.30;;;;;;;;;;10248549;28;20414;-58
2023/11/18 07:21:57;;;;;;;6.80;1.80;;;;;;;;;;10247584;28;20023;-57
2023/11/18 07:26:59;;;;;;;2.92;2.10;;;;;;;;;;10247844;28;20027;-57
2023/11/18 07:32:05;;;;;;;2.40;1.67;;;;;;;;;;10247773;28;20039;-57
2023/11/18 07:37:07;;;;;;;5.70;2.13;;;;;;;;;;10241356;28;20466;-58
2023/11/18 07:42:08;;;;;;;4.90;1.88;;;;;;;;;;10247364;28;20077;-58
2023/11/18 07:47:09;;;;;;;2.63;1.88;;;;;;;;;;10247742;29;20039;-58
2023/11/18 07:52:10;;;;;;;2.95;1.98;;;;;;;;;;10246796;28;20074;-58
2023/11/18 07:57:11;;;;;;;10.32;1.85;;;;;;;;;;10245523;28;20090;-59
2023/11/18 08:02:14;;;;;;;1.67;1.58;;;;;;;;;;10245999;28;20499;-59
2023/11/18 08:07:15;;;;;;;2.13;1.73;;;;;;;;;;10245608;29;20046;-58
2023/11/18 08:12:15;;;;;;;4.47;1.80;;;;;;;;;;10244524;28;20039;-58
2023/11/18 08:17:16;;;;;;;2.83;1.80;;;;;;;;;;10243100;28;20113;-58
2023/11/18 08:22:18;;;;;;;5.88;1.67;;;;;;;;;;10233584;28;20410;-58
2023/11/18 08:27:20;;;;;;;8.13;1.65;;;;;;;;;;10240869;28;20052;-58
2023/11/18 08:32:22;;;;;;;8.20;1.73;;;;;;;;;;10226320;28;20031;-58
2023/11/18 08:37:23;;;;;;;2.05;1.70;;;;;;;;;;10245598;28;20338;-58
2023/11/18 08:42:24;;;;;;;1.70;1.60;;;;;;;;;;10245956;29;20030;-58
2023/11/18 08:47:25;;;;;;;1.52;1.42;;;;;;;;;;10242885;28;20086;-60
2023/11/18 08:52:26;;;;;;;9.60;1.75;;;;;;;;;;10230407;28;20036;-58
2023/11/18 08:57:26;;;;;;;2.72;1.65;;;;;;;;;;10238573;29;20483;-62
2023/11/18 09:02:29;;;;;;;2.67;1.50;;;;;;;;;;10220145;28;20509;-60
2023/11/18 09:07:29;;;;;;;2.03;1.67;;;;;;;;;;10241453;28;20114;-59
2023/11/18 09:12:30;;;;;;;5.40;1.73;;;;;;;;;;10242709;28;20033;-57
2023/11/18 09:17:31;;;;;;;2.72;1.50;;;;;;;;;;10240979;28;20043;-57
2023/11/18 09:22:32;;;;;;;4.25;1.60;;;;;;;;;;10246194;28;20026;-58
2023/11/18 09:27:33;;;;;;;6.47;1.50;;;;;;;;;;10241070;28;20039;-58
2023/11/18 09:32:34;;;;;;;3.53;1.83;;;;;;;;;;10237329;29;20494;-57
2023/11/18 09:37:36;;;;;;;2.33;1.55;;;;;;;;;;10241765;28;20504;-58
2023/11/18 09:42:44;;;;;;;12.55;1.90;;;;;;;;;;10237499;28;20109;-57
2023/11/18 09:47:48;;;;;;;3.45;1.40;;;;;;;;;;10241186;28;20234;-58
2023/11/18 09:52:53;;;;;;;6.45;2.10;;;;;;;;;;10251978;28;20380;-57
2023/11/18 09:58:08;;;;;;;5.18;1.95;;;;;;;;;;10242651;28;20125;-58
2023/11/18 10:03:12;;;;;;;6.60;2.17;;;;;;;;;;10239774;28;20138;-58
2023/11/18 10:08:16;;;;;;;6.00;1.60;;;;;;;;;;10235463;28;20071;-57
2023/11/18 10:13:22;;;;;;;2.17;1.60;;;;;;;;;;10242917;28;20130;-59
2023/11/18 10:18:23;;;;;;;6.18;1.50;;;;;;;;;;10248924;28;20401;-59
2023/11/18 10:23:25;;;;;;;7.05;1.80;;;;;;;;;;10250546;28;20033;-57
2023/11/18 10:28:37;;;;;;;13.95;1.80;;;;;;;;;;10252157;28;20042;-58
2023/11/18 10:33:42;;;;;;;17.90;2.03;;;;;;;;;;10252022;28;20419;-58
2023/11/18 10:38:47;;;;;;;5.95;1.65;;;;;;;;;;10247970;28;20043;-57
2023/11/18 10:44:04;;;;;;;6.13;2.00;;;;;;;;;;10246136;28;20039;-59
2023/11/18 10:49:09;;;;;;;18.73;3.35;;;;;;;;;;10250847;28;20158;-56
2023/11/18 10:54:17;;;;;;;9.02;2.85;;;;;;;;;;10258770;28;20133;-58
2023/11/18 10:59:18;;;;;;;13.82;3.92;;;;;;;;;;10239795;28;20399;-58
2023/11/18 11:04:21;;;;;;;13.82;3.25;;;;;;;;;;10234079;28;20443;-61
2023/11/18 11:09:35;;;;;;;8.63;3.35;;;;;;;;;;10234962;28;20041;-62
2023/11/18 11:14:49;;;;;;;13.65;2.97;;;;;;;;;;10233296;28;20027;-59
2023/11/18 11:20:23;;;;;;;6.90;2.75;;;;;;;;;;10260064;28;20054;-60
2023/11/18 11:25:34;;;;;;;6.32;2.45;;;;;;;;;;10229773;28;20512;-59
2023/11/18 11:30:59;;;;;;;7.18;2.63;;;;;;;;;;10241615;28;20509;-57
2023/11/18 11:36:02;;;;;;;4.32;2.38;;;;;;;;;;10230744;28;20106;-58
2023/11/18 11:41:05;;;;;;;6.22;2.55;;;;;;;;;;10243833;28;20039;-59
2023/11/18 11:46:10;;;;;;;7.60;2.58;;;;;;;;;;10234940;29;20035;-61
2023/11/18 11:51:20;;;;;;;4.93;2.65;;;;;;;;;;10258819;23;20063;-72
2023/11/18 11:56:37;;;;;;;5.00;2.67;;;;;;;;;;10256136;28;20074;-70
2023/11/18 12:01:44;;;;;;;4.07;2.38;;;;;;;;;;10285397;28;20033;-63
2023/11/18 12:06:47;;;;;;;9.05;2.58;;;;;;;;;;10296586;28;20113;-63
2023/11/18 12:11:51;;;;;;;9.93;2.78;;;;;;;;;;10285713;28;20406;-64
2023/11/18 12:17:20;;;;;;;9.07;2.80;;;;;;;;;;10280278;28;20035;-64
2023/11/18 12:22:33;;;;;;;4.00;2.47;;;;;;;;;;10294055;28;20050;-68
2023/11/18 12:27:51;;;;;;;7.13;2.72;;;;;;;;;;10284341;28;20163;-66
2023/11/18 12:33:09;;;;;;;5.38;2.42;;;;;;;;;;10285265;28;20457;-67
2023/11/18 12:38:24;;;;;;;11.43;2.63;;;;;;;;;;10284518;28;20034;-58
2023/11/18 12:43:53;;;;;;;4.78;2.58;;;;;;;;;;10285602;28;20038;-59
2023/11/18 12:48:57;;;;;;;7.10;3.15;;;;;;;;;;10270001;28;20037;-58
2023/11/18 12:53:58;;;;;;;4.82;2.60;;;;;;;;;;10279380;28;20055;-59
2023/11/18 12:58:59;;;;;;;8.20;2.55;;;;;;;;;;10298498;28;20546;-58
2023/11/18 13:04:01;;;;;;;5.07;2.55;;;;;;;;;;10284425;28;20030;-57
2023/11/18 13:09:05;;;;;;;13.27;2.80;;;;;;;;;;10285214;28;20031;-57
2023/11/18 13:14:06;;;;;;;8.90;3.10;;;;;;;;;;10294039;28;20038;-58
2023/11/18 13:19:10;;;;;;;8.13;2.67;;;;;;;;;;10267156;28;20310;-58
2023/11/18 13:24:12;;;;;;;10.63;3.47;;;;;;;;;;10286864;28;20643;-58
2023/11/18 13:29:12;;;;;;;9.88;2.63;;;;;;;;;;10287321;28;20366;-58
2023/11/18 13:34:13;;;;;;;9.98;3.30;;;;;;;;;;10282012;28;20121;-58
2023/11/18 13:39:19;;;;;;;24.70;3.50;;;;;;;;;;10285889;28;20125;-59
2023/11/18 13:44:38;;;;;;;24.73;3.55;;;;;;;;;;10274286;28;20038;-58
2023/11/18 13:49:42;;;;;;;23.55;3.45;;;;;;;;;;10276974;28;20031;-59
2023/11/18 13:54:45;;;;;;;25.38;3.67;;;;;;;;;;10287716;28;20027;-58
2023/11/18 13:59:45;;;;;;;15.75;3.63;;;;;;;;;;10291239;28;20098;-59
2023/11/18 14:04:46;;;;;;;18.35;3.58;;;;;;;;;;10290985;28;20030;-58
2023/11/18 14:09:47;;;;;;;8.77;3.25;;;;;;;;;;10287625;28;20035;-60
2023/11/18 14:14:49;;;;;;;22.13;3.65;;;;;;;;;;10287013;28;20027;-58
2023/11/18 14:19:50;;;;;;;10.30;3.78;;;;;;;;;;10288769;28;20030;-58
2023/11/18 14:24:53;;;;;;;12.63;3.63;;;;;;;;;;10284689;28;20041;-58
2023/11/18 14:29:54;;;;;;;14.63;2.85;;;;;;;;;;10290200;28;20544;-58
2023/11/18 14:34:56;;;;;;;19.88;3.20;;;;;;;;;;10288896;28;20077;-58
2023/11/18 14:39:57;;;;;;;8.73;2.70;;;;;;;;;;10283751;28;20031;-58
2023/11/18 14:44:57;;;;;;;12.60;2.80;;;;;;;;;;10288276;28;20027;-58
2023/11/18 14:49:58;;;;;;;8.02;2.72;;;;;;;;;;10274953;28;20105;-58
2023/11/18 14:54:58;;;;;;;8.70;2.63;;;;;;;;;;10287236;28;20034;-57
2023/11/18 14:59:59;;;;;;;8.52;3.00;;;;;;;;;;10264231;28;20042;-58
2023/11/18 15:05:00;;;;;;;8.13;3.20;;;;;;;;;;10275073;28;20042;-58
2023/11/18 15:10:03;;;;;;;9.02;2.90;;;;;;;;;;10266823;28;20038;-58
2023/11/18 15:15:05;;;;;;;13.25;2.95;;;;;;;;;;10294081;28;20410;-62
2023/11/18 15:20:06;;;;;;;11.98;2.53;;;;;;;;;;10270897;28;20109;-58
2023/11/18 15:25:10;;;;;;;9.65;2.60;;;;;;;;;;10268860;28;20456;-59
2023/11/18 15:30:12;;;;;;;9.02;3.00;;;;;;;;;;10277864;28;20035;-59
2023/11/18 15:35:16;;;;;;;9.85;2.83;;;;;;;;;;10282319;28;20039;-58
2023/11/18 15:40:21;;;;;;;7.35;3.45;;;;;;;;;;10276027;28;20038;-60
2023/11/18 15:45:26;;;;;;;7.20;3.22;;;;;;;;;;10282234;28;20039;-59
2023/11/18 15:50:29;;;;;;;11.15;3.38;;;;;;;;;;10282615;28;20050;-58
2023/11/18 15:55:31;;;;;;;5.93;3.17;;;;;;;;;;10287875;28;20050;-58
2023/11/18 16:00:31;;;;;;;10.35;3.10;;;;;;;;;;10287055;28;20070;-58
2023/11/18 16:05:33;;;;;;;12.00;3.17;;;;;;;;;;10287108;28;20027;-58
2023/11/18 16:10:34;;;;;;;8.43;3.10;;;;;;;;;;10286190;28;20039;-59
2023/11/18 16:15:35;;;;;;;6.78;2.92;;;;;;;;;;10286734;28;20023;-58
2023/11/18 16:20:37;;;;;;;5.13;2.55;;;;;;;;;;10286796;28;20027;-58
2023/11/18 16:25:37;;;;;;;6.47;2.90;;;;;;;;;;10286338;28;20122;-61
2023/11/18 16:30:38;;;;;;;5.85;2.92;;;;;;;;;;10286027;28;20482;-60
2023/11/18 16:35:39;;;;;;;4.85;2.92;;;;;;;;;;10278515;28;20184;-60
2023/11/18 16:40:40;;;;;;;12.20;3.97;;;;;;;;;;10284418;28;20542;-60
2023/11/18 16:45:40;;;;;;;7.90;4.40;;;;;;;;;;10284254;28;20035;-62
2023/11/18 16:50:41;;;;;;;18.50;4.97;;;;;;;;;;10282377;28;20438;-60
2023/11/18 16:55:42;;;;;;;17.75;4.70;;;;;;;;;;10278607;28;20090;-61
2023/11/18 17:00:43;;;;;;;11.93;5.05;;;;;;;;;;10253882;28;20034;-60
2023/11/18 17:05:44;;;;;;;11.55;4.85;;;;;;;;;;10283604;28;20190;-60
2023/11/18 17:10:51;;;;;;;14.88;5.22;;;;;;;;;;10283980;28;20143;-60
2023/11/18 17:15:52;;;;;;;17.30;5.25;;;;;;;;;;10284779;28;20035;-60
2023/11/18 17:20:52;;;;;;;17.50;5.88;;;;;;;;;;10283793;28;20054;-60
2023/11/18 17:25:55;;;;;;;21.48;6.45;;;;;;;;;;10284248;28;20023;-59
2023/11/18 17:30:56;;;;;;;12.77;5.57;;;;;;;;;;10275619;28;20073;-59
2023/11/18 17:35:58;;;;;;;13.13;5.78;;;;;;;;;;10275733;28;20390;-60
2023/11/18 17:40:58;;;;;;;12.15;6.50;;;;;;;;;;10275331;28;20035;-59
2023/11/18 17:45:59;;;;;;;13.45;7.40;;;;;;;;;;10275327;28;20026;-59
2023/11/18 17:50:59;;;;;;;13.13;7.65;;;;;;;;;;10259506;28;20041;-59
2023/11/18 17:56:00;;;;;;;17.15;7.40;;;;;;;;;;10271072;28;20026;-60
2023/11/18 18:01:01;;;;;;;24.40;7.70;;;;;;;;;;10251421;28;20027;-59
2023/11/18 18:06:03;;;;;;;17.30;6.55;;;;;;;;;;10247463;28;20023;-60
2023/11/18 18:11:08;;;;;;;14.27;6.53;;;;;;;;;;10266302;28;20037;-60
2023/11/18 18:16:08;;;;;;;9.65;5.53;;;;;;;;;;10264663;28;20390;-60
2023/11/18 18:21:09;;;;;;;14.93;6.25;;;;;;;;;;10252678;28;20029;-60
2023/11/18 18:26:10;;;;;;;15.18;7.53;;;;;;;;;;10270868;28;20019;-60
2023/11/18 18:31:10;;;;;;;16.98;7.75;;;;;;;;;;10277912;28;20034;-61
2023/11/18 18:36:11;;;;;;;19.42;8.35;;;;;;;;;;10268520;28;20407;-60
2023/11/18 18:41:11;;;;;;;15.70;7.40;;;;;;;;;;10286773;28;20039;-60
2023/11/18 18:46:12;;;;;;;16.55;8.30;;;;;;;;;;10263480;28;20039;-59
2023/11/18 18:51:15;;;;;;;17.98;7.93;;;;;;;;;;10285290;28;20086;-59
2023/11/18 18:56:16;;;;;;;20.55;8.70;;;;;;;;;;10287213;28;20030;-60
2023/11/18 19:01:17;;;;;;;15.90;8.15;;;;;;;;;;10290942;28;20050;-60
2023/11/18 19:06:18;;;;;;;23.85;8.90;;;;;;;;;;10291918;28;20034;-60
2023/11/18 19:11:18;;;;;;;14.95;9.43;;;;;;;;;;10287200;28;20035;-60
2023/11/18 19:16:19;;;;;;;15.82;9.05;;;;;;;;;;10287227;28;20242;-60
2023/11/18 19:21:19;;;;;;;20.50;9.27;;;;;;;;;;10285022;28;20027;-59
2023/11/18 19:26:21;;;;;;;16.33;10.13;;;;;;;;;;10280063;28;20054;-60
2023/11/18 19:31:21;;;;;;;19.77;9.45;;;;;;;;;;10282613;28;20026;-61
2023/11/18 19:36:22;;;;;;;17.20;8.88;;;;;;;;;;10288558;28;20041;-61
2023/11/18 19:41:23;;;;;;;13.90;7.68;;;;;;;;;;10281150;28;20026;-61
2023/11/18 19:46:24;;;;;;;14.35;7.55;;;;;;;;;;10277840;28;20126;-62
2023/11/18 19:51:24;;;;;;;13.98;7.03;;;;;;;;;;10282663;28;20039;-61
2023/11/18 19:56:25;;;;;;;15.95;7.18;;;;;;;;;;10284934;28;20035;-61
2023/11/18 20:01:26;;;;;;;19.20;6.60;;;;;;;;;;10269258;28;20034;-63
2023/11/18 20:06:26;;;;;;;14.43;6.65;;;;;;;;;;10289165;28;20544;-60
2023/11/18 20:11:27;;;;;;;14.07;7.93;;;;;;;;;;10280597;28;20034;-59
2023/11/18 20:16:28;;;;;;;52.90;25.90;;;;;;;;;;10279725;28;20038;-59
2023/11/18 20:21:29;;;;;;;52.33;27.85;;;;;;;;;;10278134;28;20130;-59
2023/11/18 20:26:29;;;;;;;40.97;23.02;;;;;;;;;;10273541;28;20484;-59
2023/11/18 20:31:30;;;;;;;36.92;20.13;;;;;;;;;;10270983;28;20122;-59
2023/11/18 20:36:31;;;;;;;40.17;17.92;;;;;;;;;;10272488;28;20390;-59
2023/11/18 20:41:32;;;;;;;31.10;16.05;;;;;;;;;;10282094;28;20034;-59
2023/11/18 20:46:32;;;;;;;25.75;14.18;;;;;;;;;;10288632;28;20031;-60
2023/11/18 20:51:34;;;;;;;22.92;13.27;;;;;;;;;;10274058;28;20034;-59
2023/11/18 20:56:35;;;;;;;23.30;12.05;;;;;;;;;;10280814;28;20031;-59
2023/11/18 21:01:36;;;;;;;23.25;11.48;;;;;;;;;;10280395;28;20414;-60
2023/11/18 21:06:36;;;;;;;20.23;10.88;;;;;;;;;;10282166;28;20475;-59
2023/11/18 21:11:37;;;;;;;15.90;9.82;;;;;;;;;;10282658;28;20023;-60
2023/11/18 21:16:37;;;;;;;15.23;9.32;;;;;;;;;;10280739;28;20086;-58
2023/11/18 21:21:39;;;;;;;15.52;9.25;;;;;;;;;;10283543;28;20031;-60
2023/11/18 21:26:39;;;;;;;15.55;9.40;;;;;;;;;;10275647;28;20039;-60
2023/11/18 21:31:40;;;;;;;13.15;8.38;;;;;;;;;;10283773;28;20034;-59
2023/11/18 21:36:40;;;;;;;16.10;8.45;;;;;;;;;;10301408;28;20039;-62
2023/11/18 21:41:41;;;;;;;10.45;7.50;;;;;;;;;;10282722;28;20027;-63
2023/11/18 21:46:45;;;;;;;13.85;7.35;;;;;;;;;;10280976;28;20031;-64
2023/11/18 21:51:46;;;;;;;16.67;7.15;;;;;;;;;;10261372;28;20047;-62
2023/11/18 21:56:47;;;;;;;18.85;7.75;;;;;;;;;;10268070;28;20039;-62
2023/11/18 22:01:47;;;;;;;15.10;7.15;;;;;;;;;;10277460;28;20584;-62
2023/11/18 22:06:48;;;;;;;14.48;6.13;;;;;;;;;;10277979;28;20038;-62
2023/11/18 22:11:49;;;;;;;10.20;6.32;;;;;;;;;;10289780;28;20060;-62
2023/11/18 22:16:49;;;;;;;11.13;6.22;;;;;;;;;;10290089;28;20390;-63
2023/11/18 22:21:50;;;;;;;14.63;6.90;;;;;;;;;;10278843;28;20034;-61
2023/11/18 22:26:51;;;;;;;9.32;6.15;;;;;;;;;;10291852;28;20049;-62
2023/11/18 22:31:52;;;;;;;11.30;6.13;;;;;;;;;;10294017;28;20035;-62
2023/11/18 22:36:52;;;;;;;12.25;5.88;;;;;;;;;;10282653;28;20050;-62
2023/11/18 22:41:53;;;;;;;9.75;5.72;;;;;;;;;;10289857;28;20026;-63
2023/11/18 22:46:53;;;;;;;10.82;5.97;;;;;;;;;;10290027;28;20026;-62
2023/11/18 22:51:55;;;;;;;10.25;5.72;;;;;;;;;;10288993;28;20509;-62
2023/11/18 22:56:55;;;;;;;16.77;6.05;;;;;;;;;;10279741;28;20474;-62
2023/11/18 23:01:56;;;;;;;9.38;5.78;;;;;;;;;;10288636;28;20030;-61
2023/11/18 23:06:57;;;;;;;9.95;5.38;;;;;;;;;;10279801;28;20066;-61
2023/11/18 23:11:59;;;;;;;9.93;4.95;;;;;;;;;;10260543;28;20031;-61
2023/11/18 23:17:00;;;;;;;14.00;4.70;;;;;;;;;;10287901;28;20167;-61
2023/11/18 23:22:06;;;;;;;7.25;4.88;;;;;;;;;;10287939;28;20619;-60
2023/11/18 23:27:07;;;;;;;11.40;5.00;;;;;;;;;;10288105;28;20371;-63
2023/11/18 23:32:07;;;;;;;6.10;4.35;;;;;;;;;;10287573;28;20031;-62
2023/11/18 23:37:10;;;;;;;9.68;5.22;;;;;;;;;;10286945;28;20470;-63
2023/11/18 23:42:10;;;;;;;7.90;4.68;;;;;;;;;;10285939;28;20031;-62
2023/11/18 23:47:11;;;;;;;7.32;4.85;;;;;;;;;;10288376;28;20027;-62
2023/11/18 23:52:11;;;;;;;6.40;4.65;;;;;;;;;;10286429;28;20202;-62
2023/11/18 23:57:12;;;;;;;6.55;4.70;;;;;;;;;;10284724;28;20026;-61
